• Join FlightAware (Why Join?)
  • Login
  • US Flag 
02:42AM EST


 

Airport Tracker/Info


-or-


 

Live Flight TrackerFlight Track Log ✈ FLG4048 ✈ 06-Aug-2013 ✈ KCVG - KBDL

Flight Track Log - Related Links

Times and Time Zones

All times are in EDT time to prevent confusion due to time zone crossing. See the FLG4048 flight status page for this flight to view local times or setup timezone preferences in your user account.

Time Position Orientation Groundspeed Altitude Reporting Facility
EDT Latitude Longitude Course Direction KTS MPH feet Rate Location/Type
08:03PM 39.0333 -84.6667 90° East 157 181 1,300  Level Cincinnati TRACON
08:04PM 39.0333 -84.6000 90° East 217 250 3,100 1,620 Climbing Cincinnati TRACON
08:05PM 39.0333 -84.5000 90° East 272 313 4,900 1,440 Climbing Cincinnati TRACON
08:06PM 39.0667 -84.4167 63° Northeast 295 339 6,000 1,920 Climbing Cincinnati TRACON
08:07PM 39.0833 -84.3167 78° East 300 345 8,600 2,040 Climbing Cincinnati TRACON
08:09PM 39.1317 -84.1753 66° East 307 353 11,000 1,620 Climbing Indianapolis Center
08:10PM 39.1686 -84.0508 69° East 361 415 12,600 1,560 Climbing Indianapolis Center
08:11PM 39.2067 -83.9267 68° East 371 427 14,200 1,560 Climbing Indianapolis Center
08:12PM 39.2519 -83.8114 63° Northeast 382 440 15,800 1,440 Climbing Indianapolis Center
08:13PM 39.2994 -83.6864 64° Northeast 386 444 17,200 1,320 Climbing Indianapolis Center
08:14PM 39.3583 -83.5297 64° Northeast 401 461 18,600 1,140 Climbing Indianapolis Center
08:15PM 39.4081 -83.3969 64° Northeast 409 471 19,600 1,020 Climbing Indianapolis Center
08:16PM 39.4594 -83.2597 64° Northeast 420 483 20,700 960 Climbing Indianapolis Center
08:17PM 39.5108 -83.1214 64° Northeast 425 489 21,600 780 Climbing Indianapolis Center
08:18PM 39.5636 -82.9819 64° Northeast 429 494 22,300 660 Climbing Indianapolis Center
08:19PM 39.6094 -82.8317 68° East 447 514 23,000 720 Climbing Indianapolis Center
08:20PM 39.6225 -82.6669 84° East 457 526 23,800 720 Climbing Indianapolis Center
08:21PM 39.6358 -82.5006 84° East 461 531 24,500 600 Climbing Indianapolis Center
08:22PM 39.6492 -82.3364 84° East 458 527 25,100 600 Climbing Indianapolis Center
08:23PM 39.6642 -82.1328 84° East 469 540 25,800 660 Climbing Indianapolis Center
08:24PM 39.6761 -81.9636 85° East 469 540 26,500 660 Climbing Indianapolis Center
08:25PM 39.6894 -81.7944 84° East 471 542 27,200 660 Climbing Indianapolis Center
08:26PM 39.7008 -81.6267 85° East 467 537 27,900 660 Climbing Indianapolis Center
08:27PM 39.7125 -81.4592 85° East 465 535 28,600 660 Climbing Indianapolis Center
08:28PM 39.7678 -81.3142 64° Northeast 448 516 29,300 660 Climbing Indianapolis Center
08:29PM 39.8261 -81.1753 61° Northeast 441 507 30,000 660 Climbing Indianapolis Center
08:30PM 39.8842 -81.0347 62° Northeast 439 505 30,700 480 Climbing Indianapolis Center
08:31PM 39.9422 -80.8939 62° Northeast 440 506 31,000 120 Climbing Indianapolis Center
08:32PM 40.0044 -80.7439 62° Northeast 444 511 31,000  Level Indianapolis Center
08:33PM 40.0669 -80.5961 61° Northeast 455 524 31,000  Level Indianapolis Center
08:34PM 40.1386 -80.4203 62° Northeast 465 535 31,000  Level Indianapolis Center
08:35PM 40.1997 -80.2747 61° Northeast 469 540 31,000  Level Indianapolis Center
08:36PM 40.2636 -80.1158 62° Northeast 473 544 31,000  Level Indianapolis Center
08:38PM 40.3406 -79.9294 62° Northeast 475 547 31,000  Level Cleveland Center
08:39PM 40.4042 -79.7789 61° Northeast 475 547 31,000  Level Cleveland Center
08:40PM 40.4656 -79.6253 62° Northeast 475 547 31,000  Level Cleveland Center
08:41PM 40.5267 -79.4686 63° Northeast 475 547 31,100 420 Climbing Cleveland Center
08:42PM 40.5875 -79.3172 62° Northeast 475 547 31,900 780 Climbing Cleveland Center
08:43PM 40.6442 -79.1656 64° Northeast 470 541 32,700 540 Climbing Cleveland Center
08:44PM 40.7028 -79.0164 63° Northeast 457 526 33,000 120 Climbing Cleveland Center
08:45PM 40.7650 -78.8561 63° Northeast 452 520 33,000  Level Cleveland Center
08:47PM 40.8850 -78.5506 62° Northeast 466 536 33,000  Level New York Center
08:48PM 40.9450 -78.3978 62° Northeast 466 536 33,000  Level New York Center
08:49PM 41.0008 -78.2419 65° Northeast 472 543 33,000  Level New York Center
08:50PM 41.0606 -78.0861 63° Northeast 472 543 33,000  Level New York Center
08:51PM 41.1178 -77.9322 64° Northeast 472 543 33,000  Level New York Center
08:52PM 41.1769 -77.7786 63° Northeast 472 543 33,000  Level New York Center
08:53PM 41.2361 -77.6219 63° Northeast 472 543 33,000  Level New York Center
08:54PM 41.2950 -77.4678 63° Northeast 472 543 33,000  Level New York Center
08:55PM 41.3514 -77.3156 64° Northeast 467 537 33,000  Level New York Center
08:56PM 41.4081 -77.1553 65° Northeast 467 537 33,000  Level New York Center
08:57PM 41.4661 -77.0028 63° Northeast 467 537 33,000  Level New York Center
08:58PM 41.5172 -76.8608 64° Northeast 473 544 33,000  Level New York Center
08:59PM 41.5800 -76.6917 64° Northeast 473 544 33,000  Level New York Center
09:00PM 41.6356 -76.5356 64° Northeast 468 539 33,000  Level New York Center
09:01PM 41.6908 -76.3819 64° Northeast 462 532 33,000  Level New York Center
09:02PM 41.7839 -76.1267 64° Northeast 478 550 33,000 -120 Level Boston Center
09:03PM 41.8389 -75.9708 65° Northeast 468 539 32,800 -1,140 Descending Boston Center
09:04PM 41.8936 -75.8122 65° Northeast 468 539 30,800 -2,040 Descending Boston Center
09:05PM 41.9483 -75.6533 65° Northeast 468 539 28,800 -1,920 Descending Boston Center
09:06PM 41.9936 -75.5269 64° Northeast 468 539 27,100 -900 Descending Boston Center
09:07PM 42.0572 -75.3286 67° East 473 544 27,000 -60 Descending Boston Center
09:08PM 42.0844 -75.1564 78° East 467 537 27,000  Level Boston Center
09:09PM 42.1011 -74.9781 83° East 464 534 27,000 -360 Level Boston Center
09:11PM 42.1194 -74.7969 82° East 474 545 26,300 -780 Descending Boston Center
09:12PM 42.1425 -74.5794 82° East 481 554 25,300 -900 Descending Boston Center
09:13PM 42.1650 -74.3839 81° East 481 554 24,500 -840 Descending Boston Center
09:14PM 42.1803 -74.2081 83° East 481 554 23,700 -840 Descending Boston Center
09:15PM 42.1975 -74.0347 82° East 476 548 22,900 -840 Descending Boston Center
09:16PM 42.2164 -73.8586 82° East 476 548 22,100 -1,080 Descending Boston Center
09:17PM 42.2353 -73.6794 82° East 471 542 20,800 -2,040 Descending Boston Center
09:18PM 42.2472 -73.5256 84° East 452 520 17,600 -3,300 Descending Boston Center
09:19PM 42.2675 -73.3378 82° East 423 487 13,600 -3,300 Descending Boston Center
09:20PM 42.2747 -73.2061 86° East 381 438 11,200 -1,800 Descending Boston Center
09:21PM 42.2381 -73.1019 115° Southeast 299 344 10,100 -1,860 Descending Boston Center
09:22PM 42.1781 -73.0172 134° Southeast 280 322 7,500 -2,400 Descending Boston Center
09:23PM 42.1264 -72.9411 132° Southeast 290 334 5,300 -2,040 Descending Boston Center
09:24PM 42.0764 -72.8792 137° Southeast 276 318 3,500 -1,200 Descending Boston Center
09:25PM 42.0225 -72.8033 134° Southeast 217 250 2,800 -840 Descending Boston Center
09:26PM 41.9894 -72.7586 135° Southeast 199 229 1,800 -960 Descending Boston Center
09:27PM 41.9625 -72.7247 137° Southeast 119 137 900 -660 Descending Boston Center
09:28PM 41.9375 -72.6911 135° Southeast 135 155 500 -420 Descending Boston Center